Time;durP1;ratioP1;P1;durP2;ratioP2;P2;SDS_P1;SDS_P2;PMS_P1;PMS_P2;Temp;Humidity;BMP_temperature;BMP_pressure;BME280_temperature;BME280_humidity;BME280_pressure;Samples;Min_cycle;Max_cycle;Signal;HPM_P1;HPM_P2
2023/08/23 00:02:20;;;;;;;11.40;2.25;;;16.40;99.90;;;;;;5049786;28;20703;-72
2023/08/23 00:04:45;;;;;;;7.15;1.73;;;16.40;99.90;;;;;;5050930;28;20170;-72
2023/08/23 00:07:11;;;;;;;7.43;2.33;;;16.40;99.90;;;;;;5049698;28;20180;-72
2023/08/23 00:09:37;;;;;;;9.02;2.17;;;16.30;99.90;;;;;;5051023;28;20173;-72
2023/08/23 00:12:02;;;;;;;8.10;2.53;;;16.30;99.90;;;;;;5031717;28;20636;-72
2023/08/23 00:14:28;;;;;;;12.25;2.58;;;;;;;;;;5031081;28;20169;-72
2023/08/23 00:16:54;;;;;;;12.70;2.08;;;16.60;99.90;;;;;;5030844;28;20522;-72
2023/08/23 00:19:20;;;;;;;5.15;1.75;;;;;;;;;;5030827;28;20270;-72
2023/08/23 00:21:45;;;;;;;10.43;2.22;;;16.30;99.90;;;;;;5030927;28;20199;-72
2023/08/23 00:24:11;;;;;;;6.65;1.80;;;16.30;99.90;;;;;;5030812;28;20189;-72
2023/08/23 00:26:37;;;;;;;10.25;2.13;;;16.00;99.90;;;;;;5030731;28;20218;-72
2023/08/23 00:29:04;;;;;;;9.48;1.80;;;;;;;;;;5030881;28;20539;-72
2023/08/23 00:31:29;;;;;;;12.48;2.35;;;16.10;99.90;;;;;;5030988;28;20170;-72
2023/08/23 00:33:55;;;;;;;6.82;2.42;;;15.90;99.90;;;;;;5030655;28;20675;-72
2023/08/23 00:36:20;;;;;;;7.40;2.20;;;15.80;99.90;;;;;;5030658;28;20174;-72
2023/08/23 00:38:46;;;;;;;13.35;2.58;;;15.90;99.90;;;;;;5030575;28;20194;-71
2023/08/23 00:41:11;;;;;;;9.23;2.60;;;15.90;99.90;;;;;;5030980;28;20228;-72
2023/08/23 00:43:37;;;;;;;5.97;2.10;;;15.90;99.90;;;;;;5030670;28;20532;-71
2023/08/23 00:46:03;;;;;;;6.78;1.83;;;;;;;;;;5030647;28;20232;-71
2023/08/23 00:48:29;;;;;;;6.68;2.15;;;15.80;99.90;;;;;;5030730;28;20196;-71
2023/08/23 00:50:54;;;;;;;9.02;2.40;;;15.80;99.90;;;;;;5030747;28;20645;-71
2023/08/23 00:53:20;;;;;;;7.57;2.08;;;15.80;99.90;;;;;;5030543;28;20166;-71
2023/08/23 00:55:46;;;;;;;7.68;1.88;;;;;;;;;;5029303;28;20178;-71
2023/08/23 00:58:12;;;;;;;9.43;2.15;;;15.80;99.90;;;;;;5031629;28;20664;-71
2023/08/23 01:00:41;;;;;;;10.10;2.30;;;15.90;99.90;;;;;;5034092;28;20210;-71
2023/08/23 01:03:07;;;;;;;9.23;1.95;;;15.80;99.90;;;;;;5034135;28;20161;-72
2023/08/23 01:05:47;;;;;;;8.20;2.38;;;15.80;99.90;;;;;;5034148;28;20664;-72
2023/08/23 01:08:18;;;;;;;9.20;2.40;;;15.70;99.90;;;;;;5034090;28;20672;-71
2023/08/23 01:10:54;;;;;;;6.75;2.00;;;15.70;99.90;;;;;;5041066;28;20179;-71
2023/08/23 01:13:48;;;;;;;14.40;2.50;;;15.80;99.90;;;;;;5053953;28;20240;-71
2023/08/23 01:16:15;;;;;;;7.65;2.00;;;15.80;99.90;;;;;;5046053;28;20290;-72
2023/08/23 01:18:42;;;;;;;7.75;2.15;;;15.80;99.90;;;;;;5053816;28;20671;-71
2023/08/23 01:21:10;;;;;;;7.25;2.30;;;15.80;99.90;;;;;;5053630;28;20683;-71
2023/08/23 01:23:37;;;;;;;9.07;2.47;;;15.70;99.90;;;;;;5052465;28;20243;-71
2023/08/23 01:26:02;;;;;;;9.80;2.35;;;15.70;99.90;;;;;;5053525;28;20177;-71
2023/08/23 01:28:28;;;;;;;14.18;2.60;;;;;;;;;;5053491;28;20180;-71
2023/08/23 01:30:59;;;;;;;8.65;2.08;;;15.60;99.90;;;;;;5053529;28;20248;-71
2023/08/23 01:33:31;;;;;;;6.78;2.33;;;15.90;99.90;;;;;;5053471;28;20179;-72
2023/08/23 01:36:21;;;;;;;5.43;2.10;;;15.60;99.90;;;;;;5053448;28;20269;-71
2023/08/23 01:38:48;;;;;;;5.75;2.05;;;15.60;99.90;;;;;;5053460;28;20172;-71
2023/08/23 01:41:15;;;;;;;9.35;2.28;;;15.60;99.90;;;;;;5053252;28;20186;-71
2023/08/23 01:43:42;;;;;;;7.32;2.10;;;15.60;99.90;;;;;;5053498;28;20252;-71
2023/08/23 01:46:07;;;;;;;7.78;2.33;;;15.60;99.90;;;;;;5053183;28;20166;-70
2023/08/23 01:48:33;;;;;;;9.63;2.17;;;15.30;99.90;;;;;;5053329;28;20510;-70
2023/08/23 01:50:59;;;;;;;9.35;1.92;;;;;;;;;;5053207;28;20723;-71
2023/08/23 01:53:24;;;;;;;6.38;2.08;;;15.40;99.90;;;;;;5053124;28;20172;-70
2023/08/23 01:55:50;;;;;;;7.35;2.05;;;15.30;99.90;;;;;;5053120;28;20698;-70
2023/08/23 01:58:15;;;;;;;5.72;2.05;;;15.40;99.90;;;;;;5053052;28;20248;-71
2023/08/23 02:00:48;;;;;;;6.35;2.20;;;15.40;99.90;;;;;;5053031;28;20255;-71
2023/08/23 02:03:14;;;;;;;11.32;2.60;;;15.30;99.90;;;;;;5052985;28;20647;-73
2023/08/23 02:05:40;;;;;;;5.88;1.83;;;15.30;99.90;;;;;;5052966;28;20173;-71
2023/08/23 02:08:05;;;;;;;5.75;2.03;;;15.40;99.90;;;;;;5052902;28;20169;-70
2023/08/23 02:10:31;;;;;;;8.90;2.30;;;15.30;99.90;;;;;;5046713;28;20514;-70
2023/08/23 02:12:57;;;;;;;8.98;2.30;;;15.30;99.90;;;;;;5032846;28;20166;-71
2023/08/23 02:15:23;;;;;;;4.95;2.17;;;;;;;;;;5032770;28;20660;-71
2023/08/23 02:17:50;;;;;;;9.55;2.30;;;15.20;99.90;;;;;;5032729;28;20173;-71
2023/08/23 02:20:15;;;;;;;6.72;2.05;;;15.20;99.90;;;;;;5032619;28;20224;-71
2023/08/23 02:22:41;;;;;;;8.82;2.30;;;15.20;99.90;;;;;;5032736;28;20162;-71
2023/08/23 02:25:07;;;;;;;8.00;2.20;;;15.10;99.90;;;;;;5032569;28;20178;-71
2023/08/23 02:27:33;;;;;;;7.30;2.20;;;15.20;99.90;;;;;;5032504;28;20214;-72
2023/08/23 02:29:58;;;;;;;10.98;2.85;;;15.20;99.90;;;;;;5031428;28;20649;-71
2023/08/23 02:32:25;;;;;;;6.78;2.50;;;15.20;99.90;;;;;;5032484;28;20208;-71
2023/08/23 02:34:51;;;;;;;6.75;2.20;;;15.10;99.90;;;;;;5032591;28;20198;-71
2023/08/23 02:37:17;;;;;;;8.52;2.08;;;15.40;99.90;;;;;;5032475;28;20192;-71
2023/08/23 02:39:43;;;;;;;12.18;2.08;;;;;;;;;;5032225;28;20715;-71
2023/08/23 02:42:08;;;;;;;6.97;2.00;;;18.10;99.90;;;;;;5032486;28;20181;-71
2023/08/23 02:44:34;;;;;;;6.22;1.92;;;15.20;99.90;;;;;;5032255;28;20629;-71
2023/08/23 02:47:00;;;;;;;10.93;2.25;;;;;;;;;;5030817;28;20178;-71
2023/08/23 02:49:26;;;;;;;8.55;2.10;;;;;;;;;;5032133;28;20165;-72
2023/08/23 02:51:51;;;;;;;7.85;1.95;;;15.20;99.90;;;;;;5030836;28;20170;-71
2023/08/23 02:54:17;;;;;;;8.02;2.20;;;;;;;;;;5032037;28;20189;-71
2023/08/23 02:56:43;;;;;;;6.90;2.30;;;15.30;99.90;;;;;;5032092;28;20176;-71
2023/08/23 02:59:09;;;;;;;6.75;2.28;;;15.10;99.90;;;;;;5032049;28;20653;-71
2023/08/23 03:01:35;;;;;;;5.90;2.42;;;;;;;;;;5030733;28;20224;-71
2023/08/23 03:04:00;;;;;;;9.07;2.38;;;15.20;99.90;;;;;;5031900;28;20526;-71
2023/08/23 03:06:26;;;;;;;8.15;2.38;;;15.20;99.90;;;;;;5031846;28;20170;-71
2023/08/23 03:08:51;;;;;;;9.63;2.17;;;15.20;99.90;;;;;;5031617;28;20169;-71
2023/08/23 03:11:17;;;;;;;10.18;2.47;;;15.40;99.90;;;;;;5043361;28;20192;-70
2023/08/23 03:13:42;;;;;;;6.15;2.13;;;15.10;99.90;;;;;;5051717;28;20197;-71
2023/08/23 03:16:08;;;;;;;7.28;2.00;;;;;;;;;;5051332;28;20215;-71
2023/08/23 03:18:34;;;;;;;5.60;2.20;;;15.20;99.90;;;;;;5051611;28;20173;-71
2023/08/23 03:21:00;;;;;;;10.65;2.30;;;15.10;99.90;;;;;;5051119;28;20296;-72
2023/08/23 03:23:25;;;;;;;6.25;1.77;;;15.10;99.90;;;;;;5050818;28;20310;-71
2023/08/23 03:25:51;;;;;;;6.05;2.15;;;15.00;99.90;;;;;;5050873;28;20644;-71
2023/08/23 03:28:17;;;;;;;7.13;2.00;;;15.00;99.90;;;;;;5034558;28;20264;-71
2023/08/23 03:30:42;;;;;;;7.47;2.22;;;15.00;99.90;;;;;;5049826;28;20224;-71
2023/08/23 03:33:08;;;;;;;8.40;2.03;;;14.90;99.90;;;;;;5037981;28;20193;-71
2023/08/23 03:35:34;;;;;;;6.18;2.50;;;14.90;99.90;;;;;;5041902;28;20641;-71
2023/08/23 03:38:00;;;;;;;7.60;2.58;;;14.90;99.90;;;;;;5038698;28;20181;-71
2023/08/23 03:40:25;;;;;;;6.32;1.90;;;14.80;99.90;;;;;;5040038;28;20550;-71
2023/08/23 03:42:51;;;;;;;5.55;2.20;;;;;;;;;;5041678;28;20223;-71
2023/08/23 03:45:18;;;;;;;5.53;2.25;;;14.90;99.90;;;;;;5036801;28;20178;-72
2023/08/23 03:47:44;;;;;;;7.82;2.13;;;15.00;99.90;;;;;;5047438;28;20644;-72
2023/08/23 03:50:10;;;;;;;8.10;2.08;;;15.00;99.90;;;;;;5049175;28;20188;-73
2023/08/23 03:52:36;;;;;;;5.72;2.22;;;15.00;99.90;;;;;;5041177;28;20698;-73
2023/08/23 03:55:02;;;;;;;4.78;1.90;;;15.00;99.90;;;;;;5039171;28;20209;-72
2023/08/23 03:57:27;;;;;;;10.57;2.50;;;15.00;99.90;;;;;;5045976;28;20260;-72
2023/08/23 03:59:53;;;;;;;6.22;2.17;;;15.00;99.90;;;;;;5041525;28;20296;-72
2023/08/23 04:02:19;;;;;;;8.13;1.83;;;15.10;99.90;;;;;;5037525;28;20173;-72
2023/08/23 04:04:45;;;;;;;7.10;2.40;;;14.90;99.90;;;;;;5038835;28;20276;-72
2023/08/23 04:07:13;;;;;;;4.90;2.30;;;14.90;99.90;;;;;;5050879;28;20224;-72
2023/08/23 04:09:39;;;;;;;4.70;2.28;;;14.90;99.90;;;;;;5042912;28;20181;-71
2023/08/23 04:12:05;;;;;;;7.75;2.47;;;14.80;99.90;;;;;;5034258;28;20227;-71
2023/08/23 04:14:30;;;;;;;9.75;2.38;;;14.80;99.90;;;;;;5048327;28;20212;-71
2023/08/23 04:16:56;;;;;;;11.77;2.50;;;14.70;99.90;;;;;;5031441;28;20194;-71
2023/08/23 04:19:22;;;;;;;7.05;2.15;;;;;;;;;;5046282;28;20262;-71
2023/08/23 04:21:48;;;;;;;10.40;2.55;;;;;;;;;;5041015;28;20591;-71
2023/08/23 04:24:15;;;;;;;7.50;2.50;;;14.80;99.90;;;;;;5047275;28;20177;-71
2023/08/23 04:26:41;;;;;;;8.55;2.58;;;14.80;99.90;;;;;;5037806;28;20224;-70
2023/08/23 04:29:06;;;;;;;12.25;2.60;;;14.80;99.90;;;;;;5050706;28;20157;-71
2023/08/23 04:31:32;;;;;;;7.10;2.60;;;14.70;99.90;;;;;;5041952;28;20230;-71
2023/08/23 04:33:58;;;;;;;4.75;2.40;;;14.60;99.90;;;;;;5032879;28;20660;-72
2023/08/23 04:36:23;;;;;;;6.93;2.20;;;14.70;99.90;;;;;;5034706;28;20266;-72
2023/08/23 04:38:49;;;;;;;9.38;2.25;;;;;;;;;;5034618;28;20173;-72
2023/08/23 04:41:15;;;;;;;7.55;2.25;;;14.70;99.90;;;;;;5034655;28;20228;-72
2023/08/23 04:43:41;;;;;;;4.65;2.50;;;14.70;99.90;;;;;;5043026;28;20664;-72
2023/08/23 04:46:07;;;;;;;10.63;2.75;;;14.80;99.90;;;;;;5054445;28;20169;-72
2023/08/23 04:48:32;;;;;;;7.00;1.88;;;14.80;99.90;;;;;;5054415;28;20659;-72
2023/08/23 04:50:58;;;;;;;10.50;2.50;;;14.80;99.90;;;;;;5053228;28;20169;-72
2023/08/23 04:53:25;;;;;;;4.75;2.15;;;14.80;99.90;;;;;;5054399;28;20664;-71
2023/08/23 04:55:54;;;;;;;6.70;2.35;;;14.80;99.90;;;;;;5054075;28;20170;-71
2023/08/23 04:58:20;;;;;;;14.20;2.60;;;14.80;99.90;;;;;;5054282;28;20209;-71
2023/08/23 05:00:46;;;;;;;5.22;2.20;;;14.90;99.90;;;;;;5054096;28;20805;-71
2023/08/23 05:03:11;;;;;;;6.03;2.60;;;14.80;99.90;;;;;;5054160;28;20248;-71
2023/08/23 05:05:37;;;;;;;11.57;2.53;;;14.80;99.90;;;;;;5039797;28;20544;-71
2023/08/23 05:08:03;;;;;;;7.47;2.78;;;14.80;99.90;;;;;;5034151;28;20181;-71
2023/08/23 05:10:29;;;;;;;5.55;2.13;;;14.80;99.90;;;;;;5034209;28;20228;-71
2023/08/23 05:12:58;;;;;;;7.55;2.33;;;;;;;;;;5034098;28;20174;-71
2023/08/23 05:15:24;;;;;;;7.60;2.33;;;14.80;99.90;;;;;;5033722;28;20162;-71
2023/08/23 05:17:49;;;;;;;8.57;2.33;;;12.90;99.90;;;;;;5033904;28;20537;-71
2023/08/23 05:20:15;;;;;;;5.22;2.28;;;14.80;99.90;;;;;;5042517;28;20733;-71
2023/08/23 05:22:41;;;;;;;8.02;2.42;;;14.90;99.90;;;;;;5052578;28;20177;-71
2023/08/23 05:25:06;;;;;;;8.32;2.33;;;14.90;99.90;;;;;;5053752;28;20177;-71
2023/08/23 05:27:32;;;;;;;7.22;2.40;;;14.90;99.90;;;;;;5053508;28;20217;-71
2023/08/23 05:29:59;;;;;;;3.85;2.03;;;15.00;99.90;;;;;;5053659;28;20260;-72
2023/08/23 05:32:25;;;;;;;7.82;2.35;;;15.10;99.90;;;;;;5053609;28;20181;-72
2023/08/23 05:34:51;;;;;;;10.43;2.25;;;15.20;99.90;;;;;;5053594;28;20181;-71
2023/08/23 05:37:19;;;;;;;7.60;2.95;;;15.20;99.90;;;;;;5052768;28;20717;-72
2023/08/23 05:39:45;;;;;;;5.38;2.17;;;15.30;99.90;;;;;;5048629;28;20233;-69
2023/08/23 05:42:11;;;;;;;7.45;2.40;;;;;;;;;;5045401;28;20652;-72
2023/08/23 05:44:36;;;;;;;8.50;1.98;;;15.30;99.90;;;;;;5052293;28;20180;-72
2023/08/23 05:47:02;;;;;;;5.28;2.20;;;15.40;99.90;;;;;;5034584;28;20249;-70
2023/08/23 05:49:27;;;;;;;9.07;2.28;;;15.50;99.90;;;;;;5033412;28;20185;-72
2023/08/23 05:51:54;;;;;;;10.98;2.88;;;;;;;;;;5033365;28;20181;-71
2023/08/23 05:54:19;;;;;;;9.57;2.47;;;15.60;99.90;;;;;;5033281;28;20641;-70
2023/08/23 05:56:45;;;;;;;8.15;2.05;;;15.60;99.90;;;;;;5033157;28;20181;-71
2023/08/23 05:59:11;;;;;;;6.80;2.40;;;;;;;;;;5050210;28;20173;-71
2023/08/23 06:01:38;;;;;;;8.60;2.00;;;15.80;99.90;;;;;;5052930;28;20256;-71
2023/08/23 06:04:03;;;;;;;11.25;2.38;;;15.80;99.90;;;;;;5051693;28;20257;-71
2023/08/23 06:06:29;;;;;;;8.95;2.60;;;15.90;99.90;;;;;;5052996;28;20193;-71
2023/08/23 06:08:55;;;;;;;10.27;2.50;;;;;;;;;;5053007;28;20176;-71
2023/08/23 06:11:21;;;;;;;7.07;2.85;;;16.00;99.90;;;;;;5052981;28;20169;-71
2023/08/23 06:13:50;;;;;;;15.70;2.60;;;16.00;99.90;;;;;;5052630;28;20215;-71
2023/08/23 06:16:16;;;;;;;9.52;2.80;;;16.00;99.90;;;;;;5052667;28;20467;-71
2023/08/23 06:18:42;;;;;;;8.02;2.55;;;;;;;;;;5052801;28;20640;-72
2023/08/23 06:21:08;;;;;;;10.95;2.88;;;;;;;;;;5052438;28;20358;-71
2023/08/23 06:23:34;;;;;;;10.75;2.60;;;;;;;;;;5052636;28;20166;-71
2023/08/23 06:26:02;;;;;;;10.85;2.45;;;16.10;99.90;;;;;;5052366;28;20643;-71
2023/08/23 06:28:28;;;;;;;10.10;3.42;;;16.30;99.90;;;;;;5052574;28;20707;-71
2023/08/23 06:30:57;;;;;;;13.93;2.85;;;;;;;;;;5052479;28;20268;-71
2023/08/23 06:33:22;;;;;;;9.35;2.63;;;16.40;99.90;;;;;;5052449;28;20170;-71
2023/08/23 06:35:48;;;;;;;14.02;2.92;;;16.50;99.90;;;;;;5033042;28;20174;-71
2023/08/23 06:38:15;;;;;;;10.07;2.80;;;;;;;;;;5032366;28;20641;-71
2023/08/23 06:40:42;;;;;;;13.43;2.80;;;16.70;99.90;;;;;;5030952;28;20217;-71
2023/08/23 06:43:10;;;;;;;9.25;2.38;;;16.80;99.90;;;;;;5032278;28;20173;-70
2023/08/23 06:45:35;;;;;;;9.68;2.33;;;16.90;99.90;;;;;;5031900;28;20772;-72
2023/08/23 06:48:01;;;;;;;10.32;2.47;;;17.60;99.90;;;;;;5032123;28;20253;-72
2023/08/23 06:50:27;;;;;;;6.13;2.38;;;;;;;;;;5032091;28;20177;-72
2023/08/23 06:52:52;;;;;;;5.78;2.25;;;17.00;99.90;;;;;;5032055;28;20170;-71
2023/08/23 06:55:19;;;;;;;8.10;2.60;;;17.00;99.90;;;;;;5031950;28;20688;-71
2023/08/23 06:57:45;;;;;;;12.10;2.83;;;17.00;99.90;;;;;;5031829;28;20166;-72
2023/08/23 07:00:12;;;;;;;9.57;2.28;;;17.10;99.90;;;;;;5030966;28;20740;-72
2023/08/23 07:02:38;;;;;;;8.15;2.67;;;17.20;99.90;;;;;;5044368;28;20205;-72
2023/08/23 07:05:03;;;;;;;9.05;2.45;;;17.20;99.90;;;;;;5038930;28;20685;-72
2023/08/23 07:07:29;;;;;;;9.27;2.60;;;17.30;99.90;;;;;;5047154;28;20207;-72
2023/08/23 07:09:55;;;;;;;9.77;2.92;;;17.30;99.90;;;;;;5040907;28;20537;-73
2023/08/23 07:12:20;;;;;;;10.82;2.50;;;17.40;99.90;;;;;;5047463;28;20188;-72
2023/08/23 07:14:49;;;;;;;5.25;2.20;;;17.50;99.90;;;;;;5048779;28;20188;-72
2023/08/23 07:17:15;;;;;;;7.22;2.40;;;17.50;99.90;;;;;;5031542;28;20212;-71
2023/08/23 07:19:41;;;;;;;6.15;2.33;;;17.40;99.90;;;;;;5031432;28;20625;-71
2023/08/23 07:22:06;;;;;;;10.63;2.83;;;19.60;99.90;;;;;;5031350;28;20589;-72
2023/08/23 07:24:32;;;;;;;10.02;2.35;;;17.40;99.90;;;;;;5031452;28;20181;-72
2023/08/23 07:26:58;;;;;;;12.85;2.55;;;;;;;;;;5032558;28;20220;-71
2023/08/23 07:29:24;;;;;;;5.85;2.13;;;17.40;99.90;;;;;;5051242;28;20177;-72
2023/08/23 07:31:49;;;;;;;7.20;2.40;;;17.40;99.90;;;;;;5051381;28;20187;-72
2023/08/23 07:34:16;;;;;;;8.27;2.45;;;17.50;99.90;;;;;;5051226;28;21018;-72
2023/08/23 07:36:41;;;;;;;6.78;2.10;;;17.50;99.90;;;;;;5050006;28;20532;-72
2023/08/23 07:39:08;;;;;;;8.75;2.40;;;17.60;99.90;;;;;;5051187;28;20195;-73
2023/08/23 07:41:33;;;;;;;7.10;2.25;;;17.70;99.90;;;;;;5050984;28;20173;-73
2023/08/23 07:43:59;;;;;;;9.02;2.25;;;;;;;;;;5048839;28;20264;-72
2023/08/23 07:46:25;;;;;;;9.48;2.55;;;17.80;99.90;;;;;;5039812;28;20588;-73
2023/08/23 07:48:51;;;;;;;9.18;2.10;;;;;;;;;;5035672;28;20174;-72
2023/08/23 07:51:17;;;;;;;12.32;2.45;;;18.20;99.90;;;;;;5032808;28;20573;-72
2023/08/23 07:53:43;;;;;;;10.18;2.10;;;18.30;99.90;;;;;;5041278;28;20174;-73
2023/08/23 07:56:10;;;;;;;8.13;2.38;;;18.40;99.90;;;;;;5031035;28;20178;-73
2023/08/23 07:58:38;;;;;;;10.88;2.05;;;18.40;99.90;;;;;;5038962;28;20239;-73
2023/08/23 08:01:04;;;;;;;6.68;1.90;;;18.40;99.90;;;;;;5035054;28;20225;-73
2023/08/23 08:03:30;;;;;;;14.13;2.08;;;19.60;99.90;;;;;;5030829;28;20547;-73
2023/08/23 08:05:56;;;;;;;13.60;2.00;;;18.60;99.90;;;;;;5037576;28;20165;-73
2023/08/23 08:08:21;;;;;;;8.65;1.90;;;18.60;99.90;;;;;;5054096;28;20172;-73
2023/08/23 08:10:51;;;;;;;9.85;1.88;;;18.60;99.90;;;;;;5057852;28;20654;-72
2023/08/23 08:13:17;;;;;;;7.55;1.77;;;18.60;99.90;;;;;;5057511;28;20169;-72
2023/08/23 08:15:43;;;;;;;11.38;1.65;;;;;;;;;;5057265;28;20172;-73
2023/08/23 08:18:08;;;;;;;5.47;1.73;;;18.90;99.90;;;;;;5050537;28;20227;-73
2023/08/23 08:20:34;;;;;;;9.18;1.77;;;18.90;99.90;;;;;;5037119;28;20214;-72
2023/08/23 08:22:59;;;;;;;8.88;1.58;;;19.00;99.90;;;;;;5037649;28;20182;-74
2023/08/23 08:25:25;;;;;;;10.50;1.95;;;19.30;99.90;;;;;;5037402;28;20235;-74
2023/08/23 08:27:52;;;;;;;6.32;1.88;;;19.60;99.90;;;;;;5037205;28;20263;-74
2023/08/23 08:30:18;;;;;;;10.00;1.80;;;19.50;99.90;;;;;;5037302;28;20209;-74
2023/08/23 08:32:43;;;;;;;6.43;1.75;;;19.50;99.90;;;;;;5038333;28;20209;-74
2023/08/23 08:35:10;;;;;;;9.45;1.85;;;19.60;99.90;;;;;;5037250;28;20174;-74
2023/08/23 08:37:36;;;;;;;4.68;1.42;;;19.70;99.90;;;;;;5037183;28;20768;-74
2023/08/23 08:40:02;;;;;;;5.53;1.92;;;19.80;99.90;;;;;;5037035;28;20308;-74
2023/08/23 08:42:29;;;;;;;8.75;1.77;;;19.90;99.90;;;;;;5039216;28;20257;-74
2023/08/23 08:44:55;;;;;;;9.05;1.70;;;20.30;99.90;;;;;;5056254;28;20169;-74
2023/08/23 08:47:22;;;;;;;10.02;1.80;;;20.40;99.90;;;;;;5056963;28;20211;-74
2023/08/23 08:49:48;;;;;;;6.25;2.13;;;20.50;99.90;;;;;;5057143;28;20189;-74
2023/08/23 08:52:18;;;;;;;9.27;2.30;;;20.80;99.90;;;;;;5057009;28;20201;-74
2023/08/23 08:54:47;;;;;;;8.43;2.25;;;20.70;99.90;;;;;;5054978;28;20222;-74
2023/08/23 08:57:14;;;;;;;6.88;1.65;;;20.50;99.90;;;;;;5055683;28;20177;-74
2023/08/23 08:59:42;;;;;;;10.30;1.80;;;20.60;99.90;;;;;;5048408;28;20217;-75
2023/08/23 09:02:10;;;;;;;6.57;1.50;;;20.70;99.90;;;;;;5038247;28;20182;-75
2023/08/23 09:04:38;;;;;;;5.88;1.45;;;20.50;99.90;;;;;;5029526;28;20189;-75
2023/08/23 09:07:04;;;;;;;5.85;1.55;;;20.50;99.90;;;;;;5069936;28;20177;-74
2023/08/23 09:09:30;;;;;;;5.10;1.35;;;20.30;99.90;;;;;;5036902;28;20247;-75
2023/08/23 09:11:55;;;;;;;6.18;1.27;;;20.70;99.90;;;;;;5048404;28;20177;-76
2023/08/23 09:14:21;;;;;;;4.80;1.38;;;21.10;99.90;;;;;;5057154;28;20169;-75
2023/08/23 09:16:48;;;;;;;7.05;1.45;;;21.00;99.90;;;;;;5051316;28;20583;-75
2023/08/23 09:19:14;;;;;;;9.32;1.40;;;21.30;99.90;;;;;;5041778;28;20165;-75
2023/08/23 09:21:44;;;;;;;5.68;1.70;;;21.30;99.90;;;;;;5053733;28;20196;-74
2023/08/23 09:24:11;;;;;;;9.45;1.75;;;21.70;99.90;;;;;;5053721;28;20161;-75
2023/08/23 09:26:37;;;;;;;7.03;1.50;;;21.40;99.90;;;;;;5050845;28;20209;-75
2023/08/23 09:29:03;;;;;;;5.50;1.48;;;;;;;;;;5049650;28;20176;-75
2023/08/23 09:31:29;;;;;;;5.53;1.48;;;21.80;99.90;;;;;;5033504;28;20170;-75
2023/08/23 09:33:55;;;;;;;5.22;1.40;;;22.30;99.90;;;;;;5040233;28;20180;-75
2023/08/23 09:36:29;;;;;;;8.10;1.75;;;22.30;99.90;;;;;;5051618;28;20178;-75
2023/08/23 09:39:00;;;;;;;7.25;1.20;;;23.00;99.90;;;;;;5051440;28;20571;-75
2023/08/23 09:41:26;;;;;;;10.90;1.50;;;23.70;99.90;;;;;;5053128;28;20217;-75
2023/08/23 09:43:56;;;;;;;4.35;1.33;;;23.50;99.90;;;;;;5052025;28;20175;-75
2023/08/23 09:46:25;;;;;;;3.95;1.23;;;23.00;99.90;;;;;;5051354;28;20177;-75
2023/08/23 09:48:56;;;;;;;4.53;1.23;;;23.20;99.90;;;;;;5053234;28;20242;-75
2023/08/23 09:51:24;;;;;;;6.10;1.30;;;23.10;99.90;;;;;;5053219;28;20169;-75
2023/08/23 09:53:56;;;;;;;3.70;1.00;;;23.00;99.90;;;;;;5037752;28;20169;-75
2023/08/23 09:56:22;;;;;;;3.92;1.10;;;22.30;99.90;;;;;;5034233;28;20176;-75
2023/08/23 09:58:48;;;;;;;2.92;0.80;;;22.20;99.90;;;;;;5034195;28;20178;-75
2023/08/23 10:01:18;;;;;;;4.10;0.88;;;22.10;99.90;;;;;;5032929;28;20216;-75
2023/08/23 10:03:43;;;;;;;3.00;0.98;;;22.40;99.90;;;;;;5033961;28;20193;-75
2023/08/23 10:06:09;;;;;;;3.25;1.00;;;22.40;99.90;;;;;;5037012;28;20200;-74
2023/08/23 10:08:39;;;;;;;4.45;1.13;;;22.70;99.90;;;;;;5033806;28;20181;-75
2023/08/23 10:11:04;;;;;;;3.75;0.98;;;23.70;99.90;;;;;;5033122;28;20228;-75
2023/08/23 10:13:32;;;;;;;2.53;0.90;;;24.40;99.90;;;;;;5034011;28;20170;-75
2023/08/23 10:16:00;;;;;;;3.05;1.38;;;24.90;99.90;;;;;;5034050;28;20184;-75
2023/08/23 10:18:28;;;;;;;2.38;0.90;;;24.10;99.90;;;;;;5051506;28;20607;-75
2023/08/23 10:20:54;;;;;;;4.55;0.90;;;23.20;1.00;;;;;;5032638;28;20217;-73
2023/08/23 10:23:22;;;;;;;3.08;0.80;;;21.30;1.00;;;;;;5032740;28;20216;-74
2023/08/23 10:25:48;;;;;;;1.70;1.00;;;24.50;1.00;;;;;;5032702;28;20185;-76
2023/08/23 10:28:16;;;;;;;7.20;1.10;;;24.50;99.90;;;;;;5033949;28;20217;-75
2023/08/23 10:30:43;;;;;;;2.75;0.90;;;24.30;1.00;;;;;;5051987;28;20166;-74
2023/08/23 10:33:10;;;;;;;2.10;0.70;;;24.30;1.00;;;;;;5052425;28;20166;-75
2023/08/23 10:35:36;;;;;;;7.35;1.10;;;23.90;1.00;;;;;;5035693;28;20181;-74
2023/08/23 10:38:06;;;;;;;2.03;0.82;;;24.60;99.90;;;;;;5039904;28;20185;-74
2023/08/23 10:40:32;;;;;;;2.65;0.93;;;24.60;1.00;;;;;;5032137;28;20220;-75
2023/08/23 10:43:03;;;;;;;4.45;0.80;;;25.10;1.00;;;;;;5032236;28;20315;-75
2023/08/23 10:45:47;;;;;;;2.60;0.70;;;26.00;99.90;;;;;;5045283;28;20197;-74
2023/08/23 10:48:12;;;;;;;1.85;0.85;;;25.70;99.90;;;;;;5052106;28;20589;-75
2023/08/23 10:50:39;;;;;;;3.30;0.77;;;25.50;1.00;;;;;;5050931;28;20184;-75
2023/08/23 10:53:04;;;;;;;2.67;0.82;;;25.40;99.90;;;;;;5051978;28;20180;-75
2023/08/23 10:55:30;;;;;;;1.83;0.70;;;25.20;1.00;;;;;;5035214;28;20182;-75
2023/08/23 10:57:56;;;;;;;4.13;0.90;;;25.40;1.00;;;;;;5045043;28;20177;-74
2023/08/23 11:00:22;;;;;;;5.60;0.70;;;25.20;99.90;;;;;;5051426;28;20215;-75
2023/08/23 11:02:47;;;;;;;2.78;0.73;;;24.40;99.90;;;;;;5051889;28;20188;-75
2023/08/23 11:05:14;;;;;;;3.85;1.13;;;24.50;99.90;;;;;;5051597;28;20169;-74
2023/08/23 11:07:40;;;;;;;4.53;0.98;;;24.80;99.90;;;;;;5043657;28;20181;-75
2023/08/23 11:10:08;;;;;;;3.10;0.90;;;24.50;99.90;;;;;;5031834;28;20178;-75
2023/08/23 11:12:36;;;;;;;1.80;0.85;;;25.20;44.70;;;;;;5032950;28;20212;-75
2023/08/23 11:15:01;;;;;;;1.92;0.80;;;25.10;1.00;;;;;;5043891;28;20189;-75
2023/08/23 11:17:27;;;;;;;4.40;0.90;;;25.60;1.00;;;;;;5031479;28;20548;-74
2023/08/23 11:19:53;;;;;;;5.32;0.90;;;25.60;99.90;;;;;;5037114;28;20211;-75
2023/08/23 11:22:19;;;;;;;2.63;1.00;;;25.50;99.90;;;;;;5035726;28;20588;-75
2023/08/23 11:24:46;;;;;;;3.00;0.90;;;25.50;99.90;;;;;;5031579;28;20540;-75
2023/08/23 11:27:13;;;;;;;3.28;0.82;;;25.40;99.90;;;;;;5032530;28;20240;-75
2023/08/23 11:29:39;;;;;;;5.03;1.00;;;;;;;;;;5042317;28;20174;-75
2023/08/23 11:32:05;;;;;;;2.88;0.88;;;25.70;12.50;;;;;;5050291;28;20222;-75
2023/08/23 11:34:31;;;;;;;2.30;1.02;;;25.50;12.10;;;;;;5056008;28;20201;-74
2023/08/23 11:36:57;;;;;;;2.58;1.02;;;25.30;1.00;;;;;;5052863;28;20690;-74
2023/08/23 11:39:27;;;;;;;3.25;1.10;;;28.40;1.00;;;;;;4850097;22;20320;-73
2023/08/23 11:41:53;;;;;;;2.78;0.90;;;27.50;1.00;;;;;;5045098;28;20627;-74
2023/08/23 11:44:18;;;;;;;3.53;1.25;;;27.80;1.00;;;;;;5030696;28;20170;-73
2023/08/23 11:46:44;;;;;;;1.55;0.90;;;28.30;99.90;;;;;;5031106;28;20543;-73
2023/08/23 11:49:10;;;;;;;1.88;0.80;;;28.40;99.90;;;;;;5031322;28;20255;-73
2023/08/23 11:51:40;;;;;;;3.38;1.00;;;28.60;99.90;;;;;;5031292;28;20177;-74
2023/08/23 11:54:05;;;;;;;1.35;0.75;;;28.90;95.00;;;;;;5031410;28;20165;-73
2023/08/23 11:56:33;;;;;;;2.33;1.00;;;30.20;38.20;;;;;;5029957;28;20224;-74
2023/08/23 11:58:59;;;;;;;3.22;1.00;;;29.80;1.00;;;;;;5031309;28;20196;-75
2023/08/23 12:01:24;;;;;;;3.15;0.82;;;29.90;1.00;;;;;;5031057;28;20558;-74
2023/08/23 12:03:51;;;;;;;3.63;1.15;;;30.80;1.00;;;;;;5029532;28;20232;-75
2023/08/23 12:06:17;;;;;;;3.03;1.10;;;30.20;1.00;;;;;;5027433;28;20188;-75
2023/08/23 12:08:42;;;;;;;2.38;0.93;;;29.70;1.00;;;;;;5013728;28;20575;-75
2023/08/23 12:11:08;;;;;;;3.75;1.00;;;28.90;1.00;;;;;;5031053;28;20227;-75
2023/08/23 12:13:33;;;;;;;1.75;0.85;;;27.80;1.00;;;;;;5031250;28;20639;-76
2023/08/23 12:15:59;;;;;;;3.70;1.13;;;27.20;1.00;;;;;;5031023;28;20224;-75
2023/08/23 12:18:24;;;;;;;5.63;1.27;;;26.60;1.00;;;;;;5030529;28;20556;-75
2023/08/23 12:20:50;;;;;;;4.55;1.42;;;27.20;1.00;;;;;;5030841;28;20225;-75
2023/08/23 12:23:16;;;;;;;3.67;1.38;;;27.70;1.00;;;;;;5030830;28;20162;-75
2023/08/23 12:25:41;;;;;;;4.85;1.23;;;;;;;;;;5030408;28;20182;-76
2023/08/23 12:28:07;;;;;;;4.78;1.25;;;29.10;1.00;;;;;;5011901;28;20174;-75
2023/08/23 12:30:33;;;;;;;5.00;1.30;;;29.10;1.00;;;;;;5015843;28;20533;-75
2023/08/23 12:32:58;;;;;;;6.72;1.60;;;29.00;1.00;;;;;;5030911;28;20313;-75
2023/08/23 12:35:24;;;;;;;5.50;1.60;;;28.50;1.00;;;;;;5030620;28;20177;-75
2023/08/23 12:37:50;;;;;;;4.95;1.60;;;28.50;1.00;;;;;;5030790;28;20252;-75
2023/08/23 12:40:15;;;;;;;2.17;1.17;;;28.10;1.00;;;;;;5029497;28;20218;-76
2023/08/23 12:42:41;;;;;;;5.82;1.23;;;27.60;1.00;;;;;;5014270;28;20189;-74
2023/08/23 12:45:07;;;;;;;5.28;1.25;;;27.30;1.00;;;;;;5030210;28;20186;-75
2023/08/23 12:47:33;;;;;;;4.45;1.20;;;28.10;1.00;;;;;;5030446;28;20690;-75
2023/08/23 12:49:58;;;;;;;4.13;1.38;;;28.80;1.00;;;;;;5030602;28;20174;-75
2023/08/23 12:52:24;;;;;;;2.72;1.20;;;29.40;1.00;;;;;;5029442;28;20216;-75
2023/08/23 12:54:50;;;;;;;4.03;1.08;;;30.30;1.00;;;;;;5032548;28;20171;-75